sensor_id;sensor_type;location;lat;lon;timestamp;pressure;altitude;pressure_sealevel;temperature;humidity
68117;BME280;54909;54.464;18.498;2023-12-07T00:01:24;101900;;;1.18;72
68117;BME280;54909;54.464;18.498;2023-12-07T00:04:26;101900;;;1.20;72
68117;BME280;54909;54.464;18.498;2023-12-07T00:07:27;101900;;;1.23;72
68117;BME280;54909;54.464;18.498;2023-12-07T00:10:28;101900;;;1.15;72
68117;BME280;54909;54.464;18.498;2023-12-07T00:13:30;101900;;;1.15;72
68117;BME280;54909;54.464;18.498;2023-12-07T00:16:31;101900;;;1.22;72
68117;BME280;54909;54.464;18.498;2023-12-07T00:19:32;101900;;;1.20;72
68117;BME280;54909;54.464;18.498;2023-12-07T00:22:36;101900;;;1.17;72
68117;BME280;54909;54.464;18.498;2023-12-07T00:25:37;101900;;;1.27;72
68117;BME280;54909;54.464;18.498;2023-12-07T00:28:39;101900;;;1.23;72
68117;BME280;54909;54.464;18.498;2023-12-07T00:31:49;101900;;;1.19;72
68117;BME280;54909;54.464;18.498;2023-12-07T00:34:52;101900;;;1.23;72
68117;BME280;54909;54.464;18.498;2023-12-07T00:37:53;101900;;;1.28;72
68117;BME280;54909;54.464;18.498;2023-12-07T00:41:02;101900;;;1.26;72
68117;BME280;54909;54.464;18.498;2023-12-07T00:44:03;101900;;;1.31;72
68117;BME280;54909;54.464;18.498;2023-12-07T00:47:07;101900;;;1.31;72
68117;BME280;54909;54.464;18.498;2023-12-07T00:50:15;101900;;;1.27;72
68117;BME280;54909;54.464;18.498;2023-12-07T00:53:16;101900;;;1.29;72
68117;BME280;54909;54.464;18.498;2023-12-07T00:56:18;101900;;;1.33;72
68117;BME280;54909;54.464;18.498;2023-12-07T00:59:19;101900;;;1.33;72
68117;BME280;54909;54.464;18.498;2023-12-07T01:02:20;101900;;;1.37;72
68117;BME280;54909;54.464;18.498;2023-12-07T01:05:22;101900;;;1.38;72
68117;BME280;54909;54.464;18.498;2023-12-07T01:08:23;101900;;;1.36;72
68117;BME280;54909;54.464;18.498;2023-12-07T01:11:25;101900;;;1.34;72
68117;BME280;54909;54.464;18.498;2023-12-07T01:14:28;101900;;;1.34;72
68117;BME280;54909;54.464;18.498;2023-12-07T01:17:30;101900;;;1.42;72
68117;BME280;54909;54.464;18.498;2023-12-07T01:20:31;101900;;;1.32;72
68117;BME280;54909;54.464;18.498;2023-12-07T01:23:32;101900;;;1.37;72
68117;BME280;54909;54.464;18.498;2023-12-07T01:26:34;101900;;;1.36;72
68117;BME280;54909;54.464;18.498;2023-12-07T01:29:35;101900;;;1.35;72
68117;BME280;54909;54.464;18.498;2023-12-07T01:32:36;101900;;;1.36;72
68117;BME280;54909;54.464;18.498;2023-12-07T01:35:37;101900;;;1.39;72
68117;BME280;54909;54.464;18.498;2023-12-07T01:38:42;101900;;;1.39;72
68117;BME280;54909;54.464;18.498;2023-12-07T01:41:44;101900;;;1.40;72
68117;BME280;54909;54.464;18.498;2023-12-07T01:44:45;101900;;;1.36;72
68117;BME280;54909;54.464;18.498;2023-12-07T01:47:48;101900;;;1.40;72
68117;BME280;54909;54.464;18.498;2023-12-07T01:50:51;101900;;;1.47;72
68117;BME280;54909;54.464;18.498;2023-12-07T01:53:52;101900;;;1.43;72
68117;BME280;54909;54.464;18.498;2023-12-07T01:56:54;101900;;;1.50;71
68117;BME280;54909;54.464;18.498;2023-12-07T01:59:57;101900;;;1.40;72
68117;BME280;54909;54.464;18.498;2023-12-07T02:03:03;101900;;;1.40;72
68117;BME280;54909;54.464;18.498;2023-12-07T02:06:07;101900;;;1.48;72
68117;BME280;54909;54.464;18.498;2023-12-07T02:09:09;101900;;;1.45;72
68117;BME280;54909;54.464;18.498;2023-12-07T02:12:13;101900;;;1.43;72
68117;BME280;54909;54.464;18.498;2023-12-07T02:15:15;101900;;;1.44;72
68117;BME280;54909;54.464;18.498;2023-12-07T02:21:38;101900;;;1.50;72
68117;BME280;54909;54.464;18.498;2023-12-07T02:24:47;101900;;;1.51;72
68117;BME280;54909;54.464;18.498;2023-12-07T02:27:50;101900;;;1.53;72
68117;BME280;54909;54.464;18.498;2023-12-07T02:30:51;101900;;;1.56;72
68117;BME280;54909;54.464;18.498;2023-12-07T02:33:52;101900;;;1.57;71
68117;BME280;54909;54.464;18.498;2023-12-07T02:36:57;101900;;;1.60;71
68117;BME280;54909;54.464;18.498;2023-12-07T02:40:00;101900;;;1.57;72
68117;BME280;54909;54.464;18.498;2023-12-07T02:43:03;101900;;;1.60;72
68117;BME280;54909;54.464;18.498;2023-12-07T02:46:05;101900;;;1.55;72
68117;BME280;54909;54.464;18.498;2023-12-07T02:49:09;101900;;;1.59;72
68117;BME280;54909;54.464;18.498;2023-12-07T02:52:10;101900;;;1.63;71
68117;BME280;54909;54.464;18.498;2023-12-07T02:55:12;101900;;;1.64;71
68117;BME280;54909;54.464;18.498;2023-12-07T02:58:21;101900;;;1.62;71
68117;BME280;54909;54.464;18.498;2023-12-07T03:01:23;101900;;;1.68;71
68117;BME280;54909;54.464;18.498;2023-12-07T03:04:24;101900;;;1.64;71
68117;BME280;54909;54.464;18.498;2023-12-07T03:07:35;101900;;;1.64;72
68117;BME280;54909;54.464;18.498;2023-12-07T03:10:36;101900;;;1.65;72
68117;BME280;54909;54.464;18.498;2023-12-07T03:13:37;101900;;;1.69;71
68117;BME280;54909;54.464;18.498;2023-12-07T03:16:47;101900;;;1.76;71
68117;BME280;54909;54.464;18.498;2023-12-07T03:19:49;101900;;;1.69;71
68117;BME280;54909;54.464;18.498;2023-12-07T03:22:50;101900;;;1.71;72
68117;BME280;54909;54.464;18.498;2023-12-07T03:25:59;101900;;;1.75;71
68117;BME280;54909;54.464;18.498;2023-12-07T03:29:01;101900;;;1.68;71
68117;BME280;54909;54.464;18.498;2023-12-07T03:32:02;101900;;;1.72;71
68117;BME280;54909;54.464;18.498;2023-12-07T03:35:05;101900;;;1.73;71
68117;BME280;54909;54.464;18.498;2023-12-07T03:38:06;101900;;;1.66;72
68117;BME280;54909;54.464;18.498;2023-12-07T03:41:07;101900;;;1.62;72
68117;BME280;54909;54.464;18.498;2023-12-07T03:44:09;101900;;;1.62;72
68117;BME280;54909;54.464;18.498;2023-12-07T03:47:10;101900;;;1.59;72
68117;BME280;54909;54.464;18.498;2023-12-07T03:50:14;101900;;;1.63;72
68117;BME280;54909;54.464;18.498;2023-12-07T03:53:15;101900;;;1.52;73
68117;BME280;54909;54.464;18.498;2023-12-07T03:56:23;101900;;;1.58;72
68117;BME280;54909;54.464;18.498;2023-12-07T03:59:26;101900;;;1.60;72
68117;BME280;54909;54.464;18.498;2023-12-07T04:02:27;101900;;;1.55;72
68117;BME280;54909;54.464;18.498;2023-12-07T04:05:33;101900;;;1.62;72
68117;BME280;54909;54.464;18.498;2023-12-07T04:08:40;101900;;;1.60;72
68117;BME280;54909;54.464;18.498;2023-12-07T04:11:41;101900;;;1.64;72
68117;BME280;54909;54.464;18.498;2023-12-07T04:14:42;101900;;;1.65;72
68117;BME280;54909;54.464;18.498;2023-12-07T04:17:52;101900;;;1.68;72
68117;BME280;54909;54.464;18.498;2023-12-07T04:20:53;101900;;;1.65;72
68117;BME280;54909;54.464;18.498;2023-12-07T04:23:54;101900;;;1.64;72
68117;BME280;54909;54.464;18.498;2023-12-07T04:26:56;101900;;;1.62;73
68117;BME280;54909;54.464;18.498;2023-12-07T04:29:57;101900;;;1.59;73
68117;BME280;54909;54.464;18.498;2023-12-07T04:32:59;101900;;;1.51;73
68117;BME280;54909;54.464;18.498;2023-12-07T04:36:00;101900;;;1.60;73
68117;BME280;54909;54.464;18.498;2023-12-07T04:39:05;101900;;;1.58;73
68117;BME280;54909;54.464;18.498;2023-12-07T04:42:07;101900;;;1.60;73
68117;BME280;54909;54.464;18.498;2023-12-07T04:45:09;101900;;;1.64;73
68117;BME280;54909;54.464;18.498;2023-12-07T04:48:10;101900;;;1.65;73
68117;BME280;54909;54.464;18.498;2023-12-07T04:51:20;101900;;;1.68;73
68117;BME280;54909;54.464;18.498;2023-12-07T04:54:21;101900;;;1.68;73
68117;BME280;54909;54.464;18.498;2023-12-07T04:57:23;101900;;;1.75;73
68117;BME280;54909;54.464;18.498;2023-12-07T05:00:24;102000;;;1.78;72
68117;BME280;54909;54.464;18.498;2023-12-07T05:03:25;101900;;;1.72;72
68117;BME280;54909;54.464;18.498;2023-12-07T05:06:27;102000;;;1.75;72
68117;BME280;54909;54.464;18.498;2023-12-07T05:09:28;102000;;;1.78;72
68117;BME280;54909;54.464;18.498;2023-12-07T05:12:31;102000;;;1.74;72
68117;BME280;54909;54.464;18.498;2023-12-07T05:15:33;102000;;;1.77;72
68117;BME280;54909;54.464;18.498;2023-12-07T05:18:35;102000;;;1.72;73
68117;BME280;54909;54.464;18.498;2023-12-07T05:21:37;102000;;;1.72;73
68117;BME280;54909;54.464;18.498;2023-12-07T05:24:46;102000;;;1.75;73
68117;BME280;54909;54.464;18.498;2023-12-07T05:27:47;102000;;;1.78;73
68117;BME280;54909;54.464;18.498;2023-12-07T05:30:49;102000;;;1.83;72
68117;BME280;54909;54.464;18.498;2023-12-07T05:33:58;102000;;;1.81;72
68117;BME280;54909;54.464;18.498;2023-12-07T05:37:00;102000;;;1.78;73
68117;BME280;54909;54.464;18.498;2023-12-07T05:40:01;102000;;;1.82;73
68117;BME280;54909;54.464;18.498;2023-12-07T05:43:10;102000;;;1.79;73
68117;BME280;54909;54.464;18.498;2023-12-07T05:46:11;102000;;;1.85;72
68117;BME280;54909;54.464;18.498;2023-12-07T05:49:13;102000;;;1.85;73
68117;BME280;54909;54.464;18.498;2023-12-07T05:52:14;102000;;;1.86;72
68117;BME280;54909;54.464;18.498;2023-12-07T05:55:15;102000;;;1.74;73
68117;BME280;54909;54.464;18.498;2023-12-07T05:58:17;102000;;;1.84;72
68117;BME280;54909;54.464;18.498;2023-12-07T06:01:21;102000;;;1.79;73
68117;BME280;54909;54.464;18.498;2023-12-07T06:04:22;102000;;;1.78;73
68117;BME280;54909;54.464;18.498;2023-12-07T06:07:25;102000;;;1.78;73
68117;BME280;54909;54.464;18.498;2023-12-07T06:10:26;102000;;;1.69;73
68117;BME280;54909;54.464;18.498;2023-12-07T06:13:27;102000;;;1.72;73
68117;BME280;54909;54.464;18.498;2023-12-07T06:16:29;102000;;;1.71;73
68117;BME280;54909;54.464;18.498;2023-12-07T06:19:30;102000;;;1.78;73
68117;BME280;54909;54.464;18.498;2023-12-07T06:22:31;102000;;;1.79;72
68117;BME280;54909;54.464;18.498;2023-12-07T06:25:32;102000;;;1.83;72
68117;BME280;54909;54.464;18.498;2023-12-07T06:28:34;102000;;;1.83;73
68117;BME280;54909;54.464;18.498;2023-12-07T06:31:43;102000;;;1.86;72
68117;BME280;54909;54.464;18.498;2023-12-07T06:34:44;102000;;;1.84;72
68117;BME280;54909;54.464;18.498;2023-12-07T06:37:46;102000;;;1.83;73
68117;BME280;54909;54.464;18.498;2023-12-07T06:40:52;102000;;;1.86;72
68117;BME280;54909;54.464;18.498;2023-12-07T06:43:53;102000;;;1.83;72
68117;BME280;54909;54.464;18.498;2023-12-07T06:46:55;102000;;;1.85;72
68117;BME280;54909;54.464;18.498;2023-12-07T06:50:06;102000;;;1.83;73
68117;BME280;54909;54.464;18.498;2023-12-07T06:53:14;102000;;;1.84;73
68117;BME280;54909;54.464;18.498;2023-12-07T06:56:16;102000;;;1.85;72
68117;BME280;54909;54.464;18.498;2023-12-07T06:59:18;102000;;;1.85;73
68117;BME280;54909;54.464;18.498;2023-12-07T07:02:19;102000;;;1.89;72
68117;BME280;54909;54.464;18.498;2023-12-07T07:05:20;102000;;;1.93;73
68117;BME280;54909;54.464;18.498;2023-12-07T07:08:30;102000;;;1.89;73
68117;BME280;54909;54.464;18.498;2023-12-07T07:11:31;102000;;;1.79;73
68117;BME280;54909;54.464;18.498;2023-12-07T07:14:33;102000;;;1.94;73
68117;BME280;54909;54.464;18.498;2023-12-07T07:17:44;102000;;;1.96;72
68117;BME280;54909;54.464;18.498;2023-12-07T07:20:45;102000;;;1.97;73
68117;BME280;54909;54.464;18.498;2023-12-07T07:23:48;102000;;;2.03;72
68117;BME280;54909;54.464;18.498;2023-12-07T07:26:57;102000;;;2.06;72
68117;BME280;54909;54.464;18.498;2023-12-07T07:29:58;102000;;;2.04;72
68117;BME280;54909;54.464;18.498;2023-12-07T07:33:00;102000;;;1.99;72
68117;BME280;54909;54.464;18.498;2023-12-07T07:36:09;102000;;;2.15;72
68117;BME280;54909;54.464;18.498;2023-12-07T07:39:12;102000;;;2.20;72
68117;BME280;54909;54.464;18.498;2023-12-07T07:42:14;102000;;;2.30;72
68117;BME280;54909;54.464;18.498;2023-12-07T07:45:22;102000;;;2.32;72
68117;BME280;54909;54.464;18.498;2023-12-07T07:48:26;102000;;;2.41;72
68117;BME280;54909;54.464;18.498;2023-12-07T07:51:27;102000;;;2.41;72
68117;BME280;54909;54.464;18.498;2023-12-07T07:54:34;102000;;;2.46;71
68117;BME280;54909;54.464;18.498;2023-12-07T07:57:37;102000;;;2.52;72
68117;BME280;54909;54.464;18.498;2023-12-07T08:00:38;102000;;;2.56;71
68117;BME280;54909;54.464;18.498;2023-12-07T08:03:49;102000;;;2.54;71
68117;BME280;54909;54.464;18.498;2023-12-07T08:06:50;102000;;;2.61;72
68117;BME280;54909;54.464;18.498;2023-12-07T08:09:51;102000;;;2.71;71
68117;BME280;54909;54.464;18.498;2023-12-07T08:12:54;102000;;;2.71;71
68117;BME280;54909;54.464;18.498;2023-12-07T08:15:55;102000;;;2.67;71
68117;BME280;54909;54.464;18.498;2023-12-07T08:18:56;102000;;;2.72;71
68117;BME280;54909;54.464;18.498;2023-12-07T08:21:59;102000;;;2.66;71
68117;BME280;54909;54.464;18.498;2023-12-07T08:25:00;102000;;;2.69;71
68117;BME280;54909;54.464;18.498;2023-12-07T08:28:03;102000;;;2.66;71
68117;BME280;54909;54.464;18.498;2023-12-07T08:31:05;102000;;;2.90;71
68117;BME280;54909;54.464;18.498;2023-12-07T08:34:07;102000;;;2.77;71
68117;BME280;54909;54.464;18.498;2023-12-07T08:37:17;102000;;;2.85;71
68117;BME280;54909;54.464;18.498;2023-12-07T08:40:19;102000;;;2.84;71
68117;BME280;54909;54.464;18.498;2023-12-07T08:43:22;102000;;;2.88;71
68117;BME280;54909;54.464;18.498;2023-12-07T08:46:30;102000;;;2.93;71
68117;BME280;54909;54.464;18.498;2023-12-07T08:49:31;102000;;;2.91;71
68117;BME280;54909;54.464;18.498;2023-12-07T08:52:33;102000;;;2.92;71
68117;BME280;54909;54.464;18.498;2023-12-07T08:55:43;102000;;;2.89;71
68117;BME280;54909;54.464;18.498;2023-12-07T08:58:45;102100;;;2.98;71
68117;BME280;54909;54.464;18.498;2023-12-07T09:01:46;102100;;;3.11;70
68117;BME280;54909;54.464;18.498;2023-12-07T09:04:47;102100;;;3.12;70
68117;BME280;54909;54.464;18.498;2023-12-07T09:07:52;102100;;;3.15;70
68117;BME280;54909;54.464;18.498;2023-12-07T09:10:53;102100;;;3.24;70
68117;BME280;54909;54.464;18.498;2023-12-07T09:13:55;102100;;;3.31;69
68117;BME280;54909;54.464;18.498;2023-12-07T09:16:56;102100;;;3.20;70
68117;BME280;54909;54.464;18.498;2023-12-07T09:20:00;102100;;;3.26;70
68117;BME280;54909;54.464;18.498;2023-12-07T09:23:02;102100;;;3.21;70
68117;BME280;54909;54.464;18.498;2023-12-07T09:26:04;102000;;;3.04;70
68117;BME280;54909;54.464;18.498;2023-12-07T09:29:14;102100;;;3.25;70
68117;BME280;54909;54.464;18.498;2023-12-07T09:32:15;102100;;;3.28;70
68117;BME280;54909;54.464;18.498;2023-12-07T09:35:16;102100;;;3.37;69
68117;BME280;54909;54.464;18.498;2023-12-07T09:38:27;102100;;;3.38;69
68117;BME280;54909;54.464;18.498;2023-12-07T09:41:29;102100;;;3.30;70
68117;BME280;54909;54.464;18.498;2023-12-07T09:44:30;102100;;;3.33;70
68117;BME280;54909;54.464;18.498;2023-12-07T09:47:42;102000;;;3.27;70
68117;BME280;54909;54.464;18.498;2023-12-07T09:50:43;102000;;;3.36;70
68117;BME280;54909;54.464;18.498;2023-12-07T09:53:45;102000;;;3.24;71
68117;BME280;54909;54.464;18.498;2023-12-07T09:56:54;102000;;;3.19;71
68117;BME280;54909;54.464;18.498;2023-12-07T09:59:57;102000;;;3.15;71
68117;BME280;54909;54.464;18.498;2023-12-07T10:02:59;102000;;;3.28;71
68117;BME280;54909;54.464;18.498;2023-12-07T10:06:06;102000;;;3.39;71
68117;BME280;54909;54.464;18.498;2023-12-07T10:09:07;102000;;;3.52;71
68117;BME280;54909;54.464;18.498;2023-12-07T10:12:09;102000;;;3.56;70
68117;BME280;54909;54.464;18.498;2023-12-07T10:15:19;102000;;;3.62;70
68117;BME280;54909;54.464;18.498;2023-12-07T10:18:24;102000;;;3.70;70
68117;BME280;54909;54.464;18.498;2023-12-07T10:21:31;102000;;;3.72;70
68117;BME280;54909;54.464;18.498;2023-12-07T10:24:34;102000;;;3.75;70
68117;BME280;54909;54.464;18.498;2023-12-07T10:27:35;102000;;;3.81;70
68117;BME280;54909;54.464;18.498;2023-12-07T10:30:43;102000;;;3.78;69
68117;BME280;54909;54.464;18.498;2023-12-07T10:33:49;102000;;;3.76;69
68117;BME280;54909;54.464;18.498;2023-12-07T10:36:50;102000;;;3.74;69
68117;BME280;54909;54.464;18.498;2023-12-07T10:39:54;102000;;;3.77;69
68117;BME280;54909;54.464;18.498;2023-12-07T10:42:57;102000;;;3.89;70
68117;BME280;54909;54.464;18.498;2023-12-07T10:46:00;102000;;;3.94;69
68117;BME280;54909;54.464;18.498;2023-12-07T10:49:04;102000;;;4.05;69
68117;BME280;54909;54.464;18.498;2023-12-07T10:52:12;102000;;;4.08;68
68117;BME280;54909;54.464;18.498;2023-12-07T10:55:22;102000;;;4.13;68
68117;BME280;54909;54.464;18.498;2023-12-07T10:58:26;102000;;;4.06;68
68117;BME280;54909;54.464;18.498;2023-12-07T11:01:29;102000;;;4.13;68
68117;BME280;54909;54.464;18.498;2023-12-07T11:04:32;102000;;;4.13;69
68117;BME280;54909;54.464;18.498;2023-12-07T11:07:47;102000;;;4.16;68
68117;BME280;54909;54.464;18.498;2023-12-07T11:10:59;102000;;;4.13;68
68117;BME280;54909;54.464;18.498;2023-12-07T11:14:05;102000;;;4.21;68
68117;BME280;54909;54.464;18.498;2023-12-07T11:17:08;102000;;;4.18;68
68117;BME280;54909;54.464;18.498;2023-12-07T11:20:18;102000;;;4.24;68
68117;BME280;54909;54.464;18.498;2023-12-07T11:23:20;102000;;;4.26;67
68117;BME280;54909;54.464;18.498;2023-12-07T11:26:25;102000;;;4.18;68
68117;BME280;54909;54.464;18.498;2023-12-07T11:29:31;102000;;;4.18;68
68117;BME280;54909;54.464;18.498;2023-12-07T11:32:33;102000;;;4.13;68
68117;BME280;54909;54.464;18.498;2023-12-07T11:42:07;102000;;;3.88;68
68117;BME280;54909;54.464;18.498;2023-12-07T11:45:11;102000;;;3.79;68
68117;BME280;54909;54.464;18.498;2023-12-07T11:48:14;102000;;;3.75;69
68117;BME280;54909;54.464;18.498;2023-12-07T11:51:18;102000;;;3.77;69
68117;BME280;54909;54.464;18.498;2023-12-07T11:54:22;102000;;;3.80;68
68117;BME280;54909;54.464;18.498;2023-12-07T11:57:24;102000;;;3.79;69
68117;BME280;54909;54.464;18.498;2023-12-07T12:00:26;102000;;;3.82;68
68117;BME280;54909;54.464;18.498;2023-12-07T12:03:33;102000;;;3.79;68
68117;BME280;54909;54.464;18.498;2023-12-07T12:06:35;102000;;;3.68;69
68117;BME280;54909;54.464;18.498;2023-12-07T12:09:36;102000;;;3.82;68
68117;BME280;54909;54.464;18.498;2023-12-07T12:12:45;102000;;;3.86;68
68117;BME280;54909;54.464;18.498;2023-12-07T12:15:47;102000;;;3.87;68
68117;BME280;54909;54.464;18.498;2023-12-07T12:18:48;102000;;;3.81;68
68117;BME280;54909;54.464;18.498;2023-12-07T12:22:01;102000;;;3.79;69
68117;BME280;54909;54.464;18.498;2023-12-07T12:25:04;102000;;;3.78;69
68117;BME280;54909;54.464;18.498;2023-12-07T12:28:06;102000;;;3.83;68
68117;BME280;54909;54.464;18.498;2023-12-07T12:31:11;102000;;;3.83;68
68117;BME280;54909;54.464;18.498;2023-12-07T12:34:13;102000;;;3.88;67
68117;BME280;54909;54.464;18.498;2023-12-07T12:37:14;102000;;;3.76;68
68117;BME280;54909;54.464;18.498;2023-12-07T12:40:27;102000;;;3.82;68
68117;BME280;54909;54.464;18.498;2023-12-07T12:43:32;102000;;;3.72;69
68117;BME280;54909;54.464;18.498;2023-12-07T12:46:34;102000;;;3.70;68
68117;BME280;54909;54.464;18.498;2023-12-07T12:49:38;102000;;;3.68;69
68117;BME280;54909;54.464;18.498;2023-12-07T12:52:40;102000;;;3.73;69
68117;BME280;54909;54.464;18.498;2023-12-07T12:55:42;102000;;;3.77;69
68117;BME280;54909;54.464;18.498;2023-12-07T12:58:50;102000;;;3.74;69
68117;BME280;54909;54.464;18.498;2023-12-07T13:01:52;102000;;;3.64;69
68117;BME280;54909;54.464;18.498;2023-12-07T13:04:53;102000;;;3.75;69
68117;BME280;54909;54.464;18.498;2023-12-07T13:08:02;102000;;;3.79;69
68117;BME280;54909;54.464;18.498;2023-12-07T13:11:04;102000;;;3.77;69
68117;BME280;54909;54.464;18.498;2023-12-07T13:14:06;102000;;;3.73;69
68117;BME280;54909;54.464;18.498;2023-12-07T13:17:17;102000;;;3.76;69
68117;BME280;54909;54.464;18.498;2023-12-07T13:20:18;102000;;;3.80;68
68117;BME280;54909;54.464;18.498;2023-12-07T13:23:19;102000;;;3.73;69
68117;BME280;54909;54.464;18.498;2023-12-07T13:26:29;102000;;;3.65;69
68117;BME280;54909;54.464;18.498;2023-12-07T13:29:31;102000;;;3.58;69
68117;BME280;54909;54.464;18.498;2023-12-07T13:32:33;102000;;;3.53;70
68117;BME280;54909;54.464;18.498;2023-12-07T13:35:43;102000;;;3.52;70
68117;BME280;54909;54.464;18.498;2023-12-07T13:38:44;102000;;;3.50;70
68117;BME280;54909;54.464;18.498;2023-12-07T13:41:48;102000;;;3.51;70
68117;BME280;54909;54.464;18.498;2023-12-07T13:44:59;102000;;;3.51;70
68117;BME280;54909;54.464;18.498;2023-12-07T13:48:01;102000;;;3.48;70
68117;BME280;54909;54.464;18.498;2023-12-07T13:51:03;102000;;;3.45;70
68117;BME280;54909;54.464;18.498;2023-12-07T13:54:08;102000;;;3.41;70
68117;BME280;54909;54.464;18.498;2023-12-07T13:57:09;102000;;;3.34;71
68117;BME280;54909;54.464;18.498;2023-12-07T14:00:12;102000;;;3.34;70
68117;BME280;54909;54.464;18.498;2023-12-07T14:03:22;102000;;;3.36;70
68117;BME280;54909;54.464;18.498;2023-12-07T14:06:24;102000;;;3.27;70
68117;BME280;54909;54.464;18.498;2023-12-07T14:09:26;102000;;;3.27;71
68117;BME280;54909;54.464;18.498;2023-12-07T14:12:35;102000;;;3.24;71
68117;BME280;54909;54.464;18.498;2023-12-07T14:15:37;102000;;;3.24;71
68117;BME280;54909;54.464;18.498;2023-12-07T14:18:38;102000;;;3.27;71
68117;BME280;54909;54.464;18.498;2023-12-07T14:21:39;102000;;;3.27;71
68117;BME280;54909;54.464;18.498;2023-12-07T14:24:41;102000;;;3.35;71
68117;BME280;54909;54.464;18.498;2023-12-07T14:27:42;102000;;;3.35;71
68117;BME280;54909;54.464;18.498;2023-12-07T14:30:44;102000;;;3.29;71
68117;BME280;54909;54.464;18.498;2023-12-07T14:33:45;102000;;;3.28;71
68117;BME280;54909;54.464;18.498;2023-12-07T14:36:50;102000;;;3.25;71
68117;BME280;54909;54.464;18.498;2023-12-07T14:39:53;102000;;;3.26;71
68117;BME280;54909;54.464;18.498;2023-12-07T14:42:54;102000;;;3.24;71
68117;BME280;54909;54.464;18.498;2023-12-07T14:46:05;102000;;;3.20;71
68117;BME280;54909;54.464;18.498;2023-12-07T14:49:08;102000;;;3.15;71
68117;BME280;54909;54.464;18.498;2023-12-07T14:52:09;102000;;;3.19;72
68117;BME280;54909;54.464;18.498;2023-12-07T14:55:16;102000;;;3.25;71
68117;BME280;54909;54.464;18.498;2023-12-07T14:58:19;102000;;;3.21;72
68117;BME280;54909;54.464;18.498;2023-12-07T15:01:20;102000;;;3.22;71
68117;BME280;54909;54.464;18.498;2023-12-07T15:04:27;102000;;;3.21;71
68117;BME280;54909;54.464;18.498;2023-12-07T15:07:29;102000;;;3.21;71
68117;BME280;54909;54.464;18.498;2023-12-07T15:10:30;102000;;;3.20;72
68117;BME280;54909;54.464;18.498;2023-12-07T15:13:40;102000;;;3.24;71
68117;BME280;54909;54.464;18.498;2023-12-07T15:16:42;102000;;;3.23;72
68117;BME280;54909;54.464;18.498;2023-12-07T15:19:43;102000;;;3.22;72
68117;BME280;54909;54.464;18.498;2023-12-07T15:22:51;102000;;;3.16;72
68117;BME280;54909;54.464;18.498;2023-12-07T15:25:53;102000;;;3.16;72
68117;BME280;54909;54.464;18.498;2023-12-07T15:28:55;102000;;;3.18;72
68117;BME280;54909;54.464;18.498;2023-12-07T15:32:04;102000;;;3.14;72
68117;BME280;54909;54.464;18.498;2023-12-07T15:35:06;102000;;;3.16;72
68117;BME280;54909;54.464;18.498;2023-12-07T15:38:08;102000;;;3.20;72
68117;BME280;54909;54.464;18.498;2023-12-07T15:41:16;102000;;;3.19;72
68117;BME280;54909;54.464;18.498;2023-12-07T15:44:17;102000;;;3.15;72
68117;BME280;54909;54.464;18.498;2023-12-07T15:47:18;102000;;;3.17;72
68117;BME280;54909;54.464;18.498;2023-12-07T15:50:27;102000;;;3.15;72
68117;BME280;54909;54.464;18.498;2023-12-07T15:53:29;102000;;;3.14;72
68117;BME280;54909;54.464;18.498;2023-12-07T15:56:30;102000;;;3.12;72
68117;BME280;54909;54.464;18.498;2023-12-07T15:59:41;102100;;;3.15;72
68117;BME280;54909;54.464;18.498;2023-12-07T16:02:43;102000;;;3.12;72
68117;BME280;54909;54.464;18.498;2023-12-07T16:05:45;102000;;;3.16;72
68117;BME280;54909;54.464;18.498;2023-12-07T16:08:51;102000;;;3.26;72
68117;BME280;54909;54.464;18.498;2023-12-07T16:11:53;102000;;;3.24;71
68117;BME280;54909;54.464;18.498;2023-12-07T16:14:54;102000;;;3.22;72
68117;BME280;54909;54.464;18.498;2023-12-07T16:18:04;102000;;;3.23;72
68117;BME280;54909;54.464;18.498;2023-12-07T16:21:06;102000;;;3.24;72
68117;BME280;54909;54.464;18.498;2023-12-07T16:24:08;102000;;;3.25;72
68117;BME280;54909;54.464;18.498;2023-12-07T16:27:18;102000;;;3.14;72
68117;BME280;54909;54.464;18.498;2023-12-07T16:30:20;102000;;;3.11;72
68117;BME280;54909;54.464;18.498;2023-12-07T16:33:22;102000;;;3.09;72
68117;BME280;54909;54.464;18.498;2023-12-07T16:36:30;102000;;;3.09;73
68117;BME280;54909;54.464;18.498;2023-12-07T16:39:32;102000;;;3.10;72
68117;BME280;54909;54.464;18.498;2023-12-07T16:42:36;102000;;;3.08;73
68117;BME280;54909;54.464;18.498;2023-12-07T16:45:41;102000;;;3.06;73
68117;BME280;54909;54.464;18.498;2023-12-07T16:48:42;102000;;;3.07;73
68117;BME280;54909;54.464;18.498;2023-12-07T16:51:45;102000;;;3.08;73
68117;BME280;54909;54.464;18.498;2023-12-07T16:54:52;102000;;;3.08;73
68117;BME280;54909;54.464;18.498;2023-12-07T16:57:55;102000;;;3.11;72
68117;BME280;54909;54.464;18.498;2023-12-07T17:00:57;102000;;;3.07;73
68117;BME280;54909;54.464;18.498;2023-12-07T17:04:04;102000;;;3.05;73
68117;BME280;54909;54.464;18.498;2023-12-07T17:07:06;102000;;;3.18;73
68117;BME280;54909;54.464;18.498;2023-12-07T17:10:08;102000;;;3.15;73
68117;BME280;54909;54.464;18.498;2023-12-07T17:13:17;102000;;;3.18;73
68117;BME280;54909;54.464;18.498;2023-12-07T17:16:19;102000;;;3.19;72
68117;BME280;54909;54.464;18.498;2023-12-07T17:19:20;102000;;;3.15;72
68117;BME280;54909;54.464;18.498;2023-12-07T17:22:30;102000;;;3.13;73
68117;BME280;54909;54.464;18.498;2023-12-07T17:25:33;102000;;;3.05;73
68117;BME280;54909;54.464;18.498;2023-12-07T17:28:35;102000;;;3.09;73
68117;BME280;54909;54.464;18.498;2023-12-07T17:31:43;102000;;;3.07;73